Time,TemperatureF,DewpointF,PressureIn,WindDirection,WindDirectionDegrees,WindSpeedMPH,WindSpeedGustMPH,Humidity,HourlyPrecipIn,Conditions,Clouds,dailyrainin,SoftwareType,DateUTC
2013-03-15 00:09:00,30.4,11.0,29.92,East,82,0.0,6.0,44,0.00,,,0.00,weatherlink.com 1.10,2013-03-15 04:09:00,
2013-03-15 00:24:00,30.2,10.0,29.93,East,81,1.0,4.0,43,0.00,,,0.00,weatherlink.com 1.10,2013-03-15 04:24:00,
2013-03-15 00:39:00,30.1,10.0,29.93,East,84,0.0,3.0,44,0.00,,,0.00,weatherlink.com 1.10,2013-03-15 04:39:00,
2013-03-15 00:54:00,29.9,10.0,29.93,SSW,200,0.0,3.0,44,0.00,,,0.00,weatherlink.com 1.10,2013-03-15 04:54:00,
2013-03-15 01:09:00,29.4,11.0,29.93,SSE,148,0.0,1.0,46,0.00,,,0.00,weatherlink.com 1.10,2013-03-15 05:09:00,
2013-03-15 01:24:00,29.1,11.0,29.93,ENE,74,0.0,1.0,47,0.00,,,0.00,weatherlink.com 1.10,2013-03-15 05:24:00,
2013-03-15 01:39:00,29.0,11.0,29.94,West,259,0.0,5.0,47,0.00,,,0.00,weatherlink.com 1.10,2013-03-15 05:39:00,
2013-03-15 01:54:00,29.0,11.0,29.94,SSE,150,2.0,5.0,47,0.00,,,0.00,weatherlink.com 1.10,2013-03-15 05:54:00,
2013-03-15 02:09:00,28.7,11.0,29.95,WSW,243,1.0,6.0,47,0.00,,,0.00,weatherlink.com 1.10,2013-03-15 06:09:00,
2013-03-15 02:24:00,28.5,11.0,29.95,West,269,1.0,2.0,48,0.00,,,0.00,weatherlink.com 1.10,2013-03-15 06:24:00,
2013-03-15 02:39:00,28.4,10.0,29.95,East,86,1.0,3.0,47,0.00,,,0.00,weatherlink.com 1.10,2013-03-15 06:39:00,
2013-03-15 02:54:00,27.9,11.0,29.95,SW,236,0.0,1.0,49,0.00,,,0.00,weatherlink.com 1.10,2013-03-15 06:54:00,
2013-03-15 03:09:00,27.6,10.0,29.95,NE,44,1.0,1.0,48,0.00,,,0.00,weatherlink.com 1.10,2013-03-15 07:09:00,
2013-03-15 03:24:00,27.5,10.0,29.94,SSW,195,2.0,2.0,49,0.00,,,0.00,weatherlink.com 1.10,2013-03-15 07:24:00,
2013-03-15 03:39:00,27.2,10.0,29.94,ENE,77,1.0,1.0,49,0.00,,,0.00,weatherlink.com 1.10,2013-03-15 07:39:00,
2013-03-15 03:54:00,27.2,10.0,29.93,East,89,0.0,2.0,49,0.00,,,0.00,weatherlink.com 1.10,2013-03-15 07:54:00,
2013-03-15 04:09:00,27.3,11.0,29.93,ESE,105,0.0,2.0,50,0.00,,,0.00,weatherlink.com 1.10,2013-03-15 08:09:00,
2013-03-15 04:24:00,26.9,10.0,29.93,SE,128,0.0,2.0,50,0.00,,,0.00,weatherlink.com 1.10,2013-03-15 08:24:00,
2013-03-15 04:39:00,26.5,11.0,29.93,ENE,75,0.0,1.0,53,0.00,,,0.00,weatherlink.com 1.10,2013-03-15 08:39:00,
2013-03-15 04:54:00,25.3,12.0,29.93,ENE,75,0.0,0.0,58,0.00,,,0.00,weatherlink.com 1.10,2013-03-15 08:54:00,
2013-03-15 05:09:00,24.5,13.0,29.93,ENE,75,0.0,0.0,62,0.00,,,0.00,weatherlink.com 1.10,2013-03-15 09:09:00,
2013-03-15 05:24:00,24.2,13.0,29.93,East,96,0.0,1.0,62,0.00,,,0.00,weatherlink.com 1.10,2013-03-15 09:24:00,
2013-03-15 05:39:00,24.4,13.0,29.93,East,96,0.0,0.0,62,0.00,,,0.00,weatherlink.com 1.10,2013-03-15 09:39:00,
2013-03-15 05:54:00,24.3,14.0,29.93,ESE,104,0.0,1.0,65,0.00,,,0.00,weatherlink.com 1.10,2013-03-15 09:54:00,
2013-03-15 06:09:00,23.9,14.0,29.94,ESE,104,0.0,0.0,66,0.00,,,0.00,weatherlink.com 1.10,2013-03-15 10:09:00,
2013-03-15 06:25:00,23.1,15.0,29.94,ESE,104,0.0,0.0,70,0.00,,,0.00,weatherlink.com 1.10,2013-03-15 10:25:00,
2013-03-15 06:40:00,22.5,14.0,29.93,ESE,104,0.0,0.0,71,0.00,,,0.00,weatherlink.com 1.10,2013-03-15 10:40:00,
2013-03-15 06:55:00,21.9,14.0,29.93,ESE,104,0.0,0.0,73,0.00,,,0.00,weatherlink.com 1.10,2013-03-15 10:55:00,
2013-03-15 07:10:00,21.5,15.0,29.93,ESE,104,0.0,0.0,76,0.00,,,0.00,weatherlink.com 1.10,2013-03-15 11:10:00,
2013-03-15 07:25:00,22.0,15.0,29.93,SSE,168,0.0,1.0,73,0.00,,,0.00,weatherlink.com 1.10,2013-03-15 11:25:00,
2013-03-15 07:40:00,22.6,15.0,29.93,SW,228,0.0,0.0,74,0.00,,,0.00,weatherlink.com 1.10,2013-03-15 11:40:00,
2013-03-15 07:55:00,23.9,16.0,29.92,West,259,0.0,2.0,72,0.00,,,0.00,weatherlink.com 1.10,2013-03-15 11:55:00,
2013-03-15 08:10:00,24.4,16.0,29.92,West,259,0.0,0.0,71,0.00,,,0.00,weatherlink.com 1.10,2013-03-15 12:10:00,
2013-03-15 08:25:00,25.1,16.0,29.92,ESE,117,0.0,2.0,68,0.00,,,0.00,weatherlink.com 1.10,2013-03-15 12:25:00,
2013-03-15 08:40:00,26.1,16.0,29.92,NW,309,0.0,0.0,67,0.00,,,0.00,weatherlink.com 1.10,2013-03-15 12:40:00,
2013-03-15 08:55:00,27.0,16.0,29.91,ESE,110,0.0,1.0,64,0.00,,,0.00,weatherlink.com 1.10,2013-03-15 12:55:00,
2013-03-15 09:10:00,28.1,17.0,29.91,NNW,335,0.0,1.0,63,0.00,,,0.00,weatherlink.com 1.10,2013-03-15 13:10:00,
2013-03-15 09:25:00,29.0,17.0,29.90,SE,144,0.0,1.0,60,0.00,,,0.00,weatherlink.com 1.10,2013-03-15 13:25:00,
2013-03-15 09:40:00,31.8,16.0,29.90,SW,224,2.0,4.0,53,0.00,,,0.00,weatherlink.com 1.10,2013-03-15 13:40:00,
2013-03-15 09:55:00,31.8,16.0,29.90,South,181,0.0,2.0,52,0.00,,,0.00,weatherlink.com 1.10,2013-03-15 13:55:00,
2013-03-15 10:10:00,31.8,16.0,29.88,SW,222,1.0,3.0,53,0.00,,,0.00,weatherlink.com 1.10,2013-03-15 14:10:00,
2013-03-15 10:25:00,32.9,16.0,29.88,ESE,109,1.0,6.0,51,0.00,,,0.00,weatherlink.com 1.10,2013-03-15 14:25:00,
2013-03-15 10:40:00,34.7,17.0,29.88,NW,304,0.0,5.0,49,0.00,,,0.00,weatherlink.com 1.10,2013-03-15 14:40:00,
2013-03-15 10:55:00,35.6,17.0,29.86,SSW,205,1.0,7.0,46,0.00,,,0.00,weatherlink.com 1.10,2013-03-15 14:55:00,
2013-03-15 11:10:00,36.1,17.0,29.85,WNW,294,2.0,5.0,46,0.00,,,0.00,weatherlink.com 1.10,2013-03-15 15:10:00,
2013-03-15 11:25:00,36.8,18.0,29.84,SSE,149,2.0,5.0,47,0.00,,,0.00,weatherlink.com 1.10,2013-03-15 15:25:00,
2013-03-15 11:40:00,38.3,18.0,29.83,SW,214,1.0,5.0,44,0.00,,,0.00,weatherlink.com 1.10,2013-03-15 15:40:00,
2013-03-15 11:55:00,38.8,18.0,29.81,West,278,0.0,10.0,43,0.00,,,0.00,weatherlink.com 1.10,2013-03-15 15:55:00,
2013-03-15 12:10:00,39.5,18.0,29.80,SW,231,3.0,7.0,42,0.00,,,0.00,weatherlink.com 1.10,2013-03-15 16:10:00,
2013-03-15 12:25:00,40.1,19.0,29.79,SSW,208,3.0,7.0,43,0.00,,,0.00,weatherlink.com 1.10,2013-03-15 16:25:00,
2013-03-15 12:41:00,39.6,19.0,29.78,South,187,3.0,12.0,44,0.00,,,0.00,weatherlink.com 1.10,2013-03-15 16:41:00,
2013-03-15 12:56:00,39.2,20.0,29.78,SW,232,2.0,5.0,46,0.00,,,0.00,weatherlink.com 1.10,2013-03-15 16:56:00,
2013-03-15 13:11:00,39.3,20.0,29.77,South,177,0.0,7.0,47,0.00,,,0.00,weatherlink.com 1.10,2013-03-15 17:11:00,
2013-03-15 13:26:00,40.0,22.0,29.77,SSW,212,1.0,8.0,49,0.00,,,0.00,weatherlink.com 1.10,2013-03-15 17:26:00,
2013-03-15 13:41:00,39.5,23.0,29.77,SSW,201,1.0,11.0,53,0.00,,,0.00,weatherlink.com 1.10,2013-03-15 17:41:00,
2013-03-15 13:56:00,38.0,26.0,29.75,SW,233,4.0,7.0,63,0.00,,,0.00,weatherlink.com 1.10,2013-03-15 17:56:00,
2013-03-15 14:26:00,37.1,27.0,29.73,South,184,2.0,8.0,68,0.00,,,0.00,weatherlink.com 1.10,2013-03-15 18:26:00,
2013-03-15 14:56:00,37.6,27.0,29.72,South,187,4.0,4.0,66,0.00,,,0.00,weatherlink.com 1.10,2013-03-15 18:56:00,
2013-03-15 15:11:00,38.2,27.0,29.71,SSW,210,0.0,9.0,65,0.00,,,0.00,weatherlink.com 1.10,2013-03-15 19:11:00,
2013-03-15 15:26:00,39.7,27.0,29.71,SSW,198,0.0,5.0,61,0.00,,,0.00,weatherlink.com 1.10,2013-03-15 19:26:00,
2013-03-15 15:41:00,39.5,26.0,29.70,South,188,2.0,7.0,59,0.00,,,0.00,weatherlink.com 1.10,2013-03-15 19:41:00,
2013-03-15 15:56:00,39.3,25.0,29.71,West,263,1.0,12.0,58,0.00,,,0.00,weatherlink.com 1.10,2013-03-15 19:56:00,
2013-03-15 16:26:00,39.5,26.0,29.70,SW,214,0.0,7.0,58,0.00,,,0.00,weatherlink.com 1.10,2013-03-15 20:26:00,
2013-03-15 16:41:00,39.5,26.0,29.70,SSW,207,0.0,8.0,59,0.00,,,0.00,weatherlink.com 1.10,2013-03-15 20:41:00,
2013-03-15 16:56:00,39.3,27.0,29.70,SE,141,0.0,4.0,62,0.00,,,0.00,weatherlink.com 1.10,2013-03-15 20:56:00,
2013-03-15 17:11:00,39.3,28.0,29.70,SW,224,0.0,5.0,64,0.00,,,0.00,weatherlink.com 1.10,2013-03-15 21:11:00,
2013-03-15 17:26:00,39.5,29.0,29.70,SW,223,0.0,4.0,66,0.00,,,0.00,weatherlink.com 1.10,2013-03-15 21:26:00,
2013-03-15 17:41:00,39.1,30.0,29.70,South,190,0.0,4.0,70,0.00,,,0.00,weatherlink.com 1.10,2013-03-15 21:41:00,
2013-03-15 17:56:00,38.9,30.0,29.70,SW,231,0.0,3.0,71,0.00,,,0.00,weatherlink.com 1.10,2013-03-15 21:56:00,
2013-03-15 18:11:00,38.6,31.0,29.70,SW,218,1.0,4.0,74,0.00,,,0.00,weatherlink.com 1.10,2013-03-15 22:11:00,
2013-03-15 18:26:00,38.0,31.0,29.70,SSW,210,0.0,3.0,76,0.00,,,0.00,weatherlink.com 1.10,2013-03-15 22:26:00,
2013-03-15 18:42:00,37.3,31.0,29.70,SSE,153,0.0,5.0,79,0.00,,,0.00,weatherlink.com 1.10,2013-03-15 22:42:00,
2013-03-15 18:56:00,36.8,31.0,29.71,SSW,207,0.0,2.0,80,0.00,,,0.00,weatherlink.com 1.10,2013-03-15 22:56:00,
2013-03-15 19:11:00,36.1,31.0,29.71,SW,224,0.0,1.0,82,0.00,,,0.00,weatherlink.com 1.10,2013-03-15 23:11:00,
2013-03-15 19:26:00,35.9,31.0,29.71,WSW,248,0.0,0.0,82,0.00,,,0.00,weatherlink.com 1.10,2013-03-15 23:26:00,
2013-03-15 19:41:00,36.0,31.0,29.72,WSW,248,0.0,0.0,83,0.00,,,0.00,weatherlink.com 1.10,2013-03-15 23:41:00,
2013-03-15 20:11:00,35.9,32.0,29.72,SW,227,0.0,1.0,84,0.00,,,0.00,weatherlink.com 1.10,2013-03-16 00:11:00,
2013-03-15 20:26:00,34.9,30.0,29.72,SE,146,0.0,1.0,83,0.00,,,0.00,weatherlink.com 1.10,2013-03-16 00:26:00,
2013-03-15 20:41:00,33.5,29.0,29.72,SE,146,0.0,0.0,84,0.00,,,0.00,weatherlink.com 1.10,2013-03-16 00:41:00,
2013-03-15 20:56:00,32.0,29.0,29.72,SE,146,0.0,0.0,87,0.00,,,0.00,weatherlink.com 1.10,2013-03-16 00:56:00,
2013-03-15 21:11:00,32.2,29.0,29.73,SE,125,0.0,3.0,86,0.00,,,0.00,weatherlink.com 1.10,2013-03-16 01:11:00,
2013-03-15 21:41:00,35.9,25.0,29.74,WSW,245,0.0,3.0,65,0.00,,,0.00,weatherlink.com 1.10,2013-03-16 01:41:00,
2013-03-15 21:56:00,36.0,26.0,29.74,ESE,105,1.0,3.0,66,0.00,,,0.00,weatherlink.com 1.10,2013-03-16 01:56:00,
2013-03-15 22:11:00,36.6,24.0,29.73,WSW,249,1.0,3.0,61,0.00,,,0.00,weatherlink.com 1.10,2013-03-16 02:11:00,
2013-03-15 22:26:00,36.7,23.0,29.73,NW,316,3.0,6.0,59,0.00,,,0.00,weatherlink.com 1.10,2013-03-16 02:26:00,
2013-03-15 22:41:00,37.8,24.0,29.74,West,260,2.0,4.0,57,0.00,,,0.00,weatherlink.com 1.10,2013-03-16 02:41:00,
2013-03-15 22:56:00,37.4,24.0,29.75,WNW,289,3.0,6.0,59,0.00,,,0.00,weatherlink.com 1.10,2013-03-16 02:56:00,
2013-03-15 23:11:00,37.4,25.0,29.75,WNW,288,0.0,2.0,62,0.00,,,0.00,weatherlink.com 1.10,2013-03-16 03:11:00,
2013-03-15 23:26:00,37.5,23.0,29.75,SE,135,0.0,2.0,57,0.00,,,0.00,weatherlink.com 1.10,2013-03-16 03:26:00,
2013-03-15 23:41:00,37.5,23.0,29.75,South,173,0.0,4.0,57,0.00,,,0.00,weatherlink.com 1.10,2013-03-16 03:41:00,
2013-03-15 23:56:00,38.1,23.0,29.75,WNW,300,0.0,4.0,55,0.00,,,0.00,weatherlink.com 1.10,2013-03-16 03:56:00,